createdAt,value
2018-06-06T00:01:22.760Z,23.70
2018-06-06T00:03:50.756Z,24.00
2018-06-06T00:06:19.056Z,25.20
2018-06-06T00:08:47.131Z,25.00
2018-06-06T00:11:15.527Z,23.52
2018-06-06T00:13:43.954Z,22.50
2018-06-06T00:16:12.325Z,22.32
2018-06-06T00:18:40.637Z,22.33
2018-06-06T00:21:09.059Z,21.87
2018-06-06T00:23:37.473Z,23.05
2018-06-06T00:26:05.806Z,23.00
2018-06-06T00:28:34.109Z,23.10
2018-06-06T00:31:02.448Z,22.85
2018-06-06T00:33:30.840Z,22.52
2018-06-06T00:35:59.339Z,22.20
2018-06-06T00:38:27.733Z,22.30
2018-06-06T00:40:55.713Z,21.65
2018-06-06T00:43:23.775Z,22.32
2018-06-06T00:45:52.437Z,22.20
2018-06-06T00:48:20.718Z,22.60
2018-06-06T00:50:49.022Z,21.50
2018-06-06T00:53:18.033Z,21.97
2018-06-06T00:55:46.338Z,21.62
2018-06-06T00:58:15.531Z,22.50
2018-06-06T01:00:43.859Z,22.20
2018-06-06T01:03:12.148Z,21.62
2018-06-06T01:05:40.436Z,21.93
2018-06-06T01:08:08.737Z,21.60
2018-06-06T01:10:37.242Z,21.60
2018-06-06T01:13:05.332Z,21.63
2018-06-06T01:15:33.733Z,21.97
2018-06-06T01:18:01.912Z,21.82
2018-06-06T01:20:30.113Z,20.70
2018-06-06T01:22:58.523Z,21.75
2018-06-06T01:25:26.617Z,21.50
2018-06-06T01:27:55.010Z,22.10
2018-06-06T01:30:23.089Z,21.77
2018-06-06T01:32:51.382Z,21.02
2018-06-06T01:35:19.727Z,20.80
2018-06-06T01:37:48.107Z,21.52
2018-06-06T01:40:16.373Z,21.60
2018-06-06T01:42:44.699Z,21.00
2018-06-06T01:45:13.076Z,20.70
2018-06-06T01:47:41.405Z,22.65
2018-06-06T01:50:09.754Z,22.15
2018-06-06T01:52:38.066Z,25.48
2018-06-06T01:55:06.582Z,22.82
2018-06-06T01:57:34.674Z,23.80
2018-06-06T02:00:02.953Z,24.90
2018-06-06T02:02:31.042Z,25.43
2018-06-06T02:04:59.573Z,23.87
2018-06-06T02:07:27.547Z,23.98
2018-06-06T02:09:55.830Z,24.92
2018-06-06T02:12:24.266Z,25.00
2018-06-06T02:14:52.338Z,24.20
2018-06-06T02:17:20.426Z,23.40
2018-06-06T02:19:49.452Z,23.55
2018-06-06T02:22:17.869Z,24.45
2018-06-06T02:24:46.257Z,24.37
2018-06-06T02:27:14.459Z,24.67
2018-06-06T02:29:42.448Z,23.83
2018-06-06T02:32:10.872Z,23.75
2018-06-06T02:34:39.132Z,23.13
2018-06-06T02:37:12.673Z,22.98
2018-06-06T02:39:41.065Z,25.00
2018-06-06T02:42:09.557Z,25.40
2018-06-06T02:44:37.849Z,26.00
2018-06-06T02:47:06.053Z,24.37
2018-06-06T02:49:34.268Z,25.15
2018-06-06T02:52:02.444Z,25.72
2018-06-06T02:54:30.418Z,25.08
2018-06-06T02:56:59.122Z,26.70
2018-06-06T02:59:27.466Z,25.12
2018-06-06T03:01:55.837Z,24.33
2018-06-06T03:04:24.223Z,25.10
2018-06-06T03:06:52.331Z,25.68
2018-06-06T03:09:20.259Z,25.85
2018-06-06T03:11:48.389Z,25.35
2018-06-06T03:14:16.582Z,26.40
2018-06-06T03:16:44.943Z,26.25
2018-06-06T03:19:13.167Z,24.10
2018-06-06T03:21:41.470Z,24.60
2018-06-06T03:24:10.599Z,25.17
2018-06-06T03:26:39.114Z,24.00
2018-06-06T03:29:07.415Z,25.77
2018-06-06T03:31:35.696Z,24.07
2018-06-06T03:34:03.573Z,25.85
2018-06-06T03:36:32.125Z,24.73
2018-06-06T03:39:00.392Z,24.80
2018-06-06T03:41:28.375Z,24.05
2018-06-06T03:43:57.258Z,24.87
2018-06-06T03:46:25.673Z,24.50
2018-06-06T03:48:53.999Z,24.23
2018-06-06T03:51:21.978Z,23.22
2018-06-06T03:53:49.979Z,24.52
2018-06-06T03:56:18.488Z,23.42
2018-06-06T03:58:46.884Z,23.45
2018-06-06T04:01:15.400Z,24.20
2018-06-06T04:03:43.663Z,23.50
2018-06-06T04:06:12.183Z,23.20
2018-06-06T04:08:40.561Z,21.12
2018-06-06T04:11:08.669Z,21.17
2018-06-06T04:13:36.693Z,21.20
2018-06-06T04:16:05.149Z,20.55
2018-06-06T04:18:33.490Z,20.08
2018-06-06T04:21:01.889Z,21.95
2018-06-06T04:23:30.131Z,19.70
2018-06-06T04:25:59.373Z,20.80
2018-06-06T04:28:27.149Z,20.32
2018-06-06T04:30:56.075Z,20.05
2018-06-06T04:33:24.467Z,20.00
2018-06-06T04:35:52.573Z,19.20
2018-06-06T04:38:21.091Z,20.50
2018-06-06T04:40:49.574Z,19.75
2018-06-06T04:43:18.090Z,19.73
2018-06-06T04:45:46.492Z,18.62
2018-06-06T04:48:14.650Z,18.80
2018-06-06T04:50:42.682Z,19.47
2018-06-06T04:53:10.873Z,19.17
2018-06-06T04:55:39.247Z,19.92
2018-06-06T04:58:07.235Z,19.67
2018-06-06T05:00:35.795Z,19.62
2018-06-06T05:03:04.134Z,19.00
2018-06-06T05:05:32.116Z,19.23
2018-06-06T05:08:00.427Z,19.45
2018-06-06T05:10:28.688Z,18.98
2018-06-06T05:12:57.013Z,18.13
2018-06-06T05:15:25.225Z,19.98
2018-06-06T05:17:53.623Z,18.70
2018-06-06T05:20:22.400Z,18.90
2018-06-06T05:22:50.408Z,19.27
2018-06-06T05:25:18.596Z,18.90
2018-06-06T05:27:47.054Z,18.05
2018-06-06T05:30:15.525Z,18.27
2018-06-06T05:32:44.030Z,18.60
2018-06-06T05:35:12.377Z,17.37
2018-06-06T05:37:40.477Z,17.80
2018-06-06T05:40:14.338Z,19.00
2018-06-06T05:42:42.844Z,17.50
2018-06-06T05:45:11.272Z,17.30
2018-06-06T05:47:39.531Z,17.40
2018-06-06T05:50:07.615Z,18.27
2018-06-06T05:52:35.744Z,17.42
2018-06-06T05:55:04.018Z,18.37
2018-06-06T05:57:32.407Z,17.40
2018-06-06T06:00:00.509Z,17.40
2018-06-06T06:02:28.593Z,17.25
2018-06-06T06:04:56.577Z,17.90
2018-06-06T06:07:24.686Z,17.17
2018-06-06T06:09:52.950Z,17.75
2018-06-06T06:12:21.259Z,16.02
2018-06-06T06:14:49.645Z,15.40
2018-06-06T06:17:17.873Z,16.50
2018-06-06T06:19:46.071Z,16.00
2018-06-06T06:22:14.143Z,15.90
2018-06-06T06:24:42.239Z,15.57
2018-06-06T06:27:10.550Z,15.80
2018-06-06T06:29:38.849Z,15.77
2018-06-06T06:32:07.732Z,16.37
2018-06-06T06:34:35.933Z,17.42
2018-06-06T06:37:04.231Z,15.05
2018-06-06T06:39:32.543Z,14.33
2018-06-06T06:42:00.728Z,13.83
2018-06-06T06:44:28.831Z,14.00
2018-06-06T06:46:57.237Z,13.90
2018-06-06T06:49:25.628Z,13.25
2018-06-06T06:51:53.601Z,12.83
2018-06-06T06:54:22.014Z,13.38
2018-06-06T06:56:50.024Z,14.00
2018-06-06T06:59:18.124Z,13.80
2018-06-06T07:01:49.968Z,12.98
2018-06-06T07:04:18.080Z,13.78
2018-06-06T07:06:47.088Z,13.57
2018-06-06T07:09:15.697Z,14.10
2018-06-06T07:11:44.526Z,13.75
2018-06-06T07:14:12.890Z,13.38
2018-06-06T07:16:41.171Z,13.47
2018-06-06T07:19:09.485Z,13.00
2018-06-06T07:21:37.991Z,13.40
2018-06-06T07:24:06.213Z,13.45
2018-06-06T07:26:34.497Z,13.75
2018-06-06T07:29:02.575Z,13.40
2018-06-06T07:31:30.578Z,13.65
2018-06-06T07:33:58.649Z,13.08
2018-06-06T07:36:26.645Z,12.50
2018-06-06T07:38:54.754Z,13.30
2018-06-06T07:41:23.769Z,13.15
2018-06-06T07:43:51.918Z,13.30
2018-06-06T07:46:20.891Z,13.30
2018-06-06T07:48:49.261Z,13.15
2018-06-06T07:51:17.551Z,12.68
2018-06-06T07:53:45.947Z,12.55
2018-06-06T07:56:14.374Z,13.25
2018-06-06T07:58:42.647Z,13.10
2018-06-06T08:01:10.987Z,13.85
2018-06-06T08:03:39.249Z,14.50
2018-06-06T08:06:07.653Z,13.50
2018-06-06T08:08:35.870Z,13.58
2018-06-06T08:11:04.654Z,14.85
2018-06-06T08:13:32.664Z,14.23
2018-06-06T08:16:00.966Z,14.20
2018-06-06T08:18:29.118Z,14.70
2018-06-06T08:20:57.536Z,13.90
2018-06-06T08:23:25.543Z,14.80
2018-06-06T08:25:53.919Z,15.40
2018-06-06T08:28:22.455Z,15.10
2018-06-06T08:30:51.095Z,15.48
2018-06-06T08:33:19.340Z,15.63
2018-06-06T08:35:47.540Z,14.73
2018-06-06T08:38:16.262Z,14.50
2018-06-06T08:40:44.740Z,15.35
2018-06-06T08:43:13.725Z,15.20
2018-06-06T08:45:41.850Z,14.90
2018-06-06T08:48:09.844Z,14.75
2018-06-06T08:50:38.040Z,14.28
2018-06-06T08:53:06.340Z,15.30
2018-06-06T08:55:34.722Z,14.55
2018-06-06T08:58:02.729Z,15.15
2018-06-06T09:00:31.228Z,14.55
2018-06-06T09:03:00.181Z,15.95
2018-06-06T09:05:29.061Z,14.80
2018-06-06T09:07:58.065Z,14.43
2018-06-06T09:10:26.463Z,15.00
2018-06-06T09:12:54.760Z,14.07
2018-06-06T09:15:23.267Z,14.50
2018-06-06T09:17:51.396Z,13.88
2018-06-06T09:20:19.754Z,14.40
2018-06-06T09:22:47.850Z,14.33
2018-06-06T09:25:16.549Z,13.98
2018-06-06T09:27:44.696Z,13.60
2018-06-06T09:30:13.077Z,14.40
2018-06-06T09:32:41.447Z,12.82
2018-06-06T09:35:10.101Z,13.70
2018-06-06T09:37:38.642Z,13.53
2018-06-06T09:40:06.660Z,14.00
2018-06-06T09:42:35.168Z,13.18
2018-06-06T09:45:03.647Z,13.70
2018-06-06T09:47:31.929Z,13.53
2018-06-06T09:50:00.144Z,13.90
2018-06-06T09:52:28.442Z,13.22
2018-06-06T09:54:58.763Z,13.80
2018-06-06T09:57:26.976Z,13.30
2018-06-06T09:59:55.072Z,13.20
2018-06-06T10:02:23.543Z,13.43
2018-06-06T10:04:51.997Z,12.80
2018-06-06T10:07:20.385Z,13.40
2018-06-06T10:09:49.012Z,13.80
2018-06-06T10:12:17.829Z,13.70
2018-06-06T10:14:45.958Z,12.88
2018-06-06T10:17:14.583Z,13.13
2018-06-06T10:19:42.939Z,15.08
2018-06-06T10:22:11.349Z,14.43
2018-06-06T10:24:39.662Z,14.30
2018-06-06T10:27:08.283Z,13.80
2018-06-06T10:29:36.805Z,14.53
2018-06-06T10:32:05.251Z,14.90
2018-06-06T10:34:33.485Z,14.50
2018-06-06T10:37:01.869Z,14.85
2018-06-06T10:39:29.877Z,14.60
2018-06-06T10:41:58.265Z,14.00
2018-06-06T10:44:26.371Z,15.50
2018-06-06T10:46:55.253Z,14.90
2018-06-06T10:49:24.352Z,14.27
2018-06-06T10:51:53.212Z,14.35
2018-06-06T10:54:21.447Z,14.78
2018-06-06T10:56:49.872Z,14.47
2018-06-06T10:59:18.400Z,16.20
2018-06-06T11:01:46.672Z,16.25
2018-06-06T11:04:15.298Z,15.58
2018-06-06T11:06:43.382Z,15.27
2018-06-06T11:09:11.363Z,14.45
2018-06-06T11:11:39.478Z,16.30
2018-06-06T11:14:07.454Z,13.50
2018-06-06T11:16:35.616Z,14.18
2018-06-06T11:19:03.916Z,13.83
2018-06-06T11:21:33.090Z,15.43
2018-06-06T11:24:01.500Z,14.50
2018-06-06T11:26:30.584Z,14.93
2018-06-06T11:28:58.664Z,13.03
2018-06-06T11:31:26.660Z,14.50
2018-06-06T11:33:54.659Z,14.00
2018-06-06T11:36:22.951Z,14.00
2018-06-06T11:38:51.226Z,14.30
2018-06-06T11:41:20.238Z,12.85
2018-06-06T11:43:48.634Z,14.00
2018-06-06T11:46:16.941Z,13.20
2018-06-06T11:48:45.244Z,15.58
2018-06-06T11:51:13.308Z,14.80
2018-06-06T11:53:41.619Z,14.25
2018-06-06T11:56:10.678Z,13.85
2018-06-06T11:58:39.103Z,13.85
2018-06-06T12:01:07.628Z,14.30
2018-06-06T12:03:36.176Z,14.70
2018-06-06T12:06:04.449Z,13.00
2018-06-06T12:08:32.846Z,14.25
2018-06-06T12:11:01.287Z,14.30
2018-06-06T12:13:29.637Z,13.93
2018-06-06T12:15:58.199Z,14.70
2018-06-06T12:18:26.471Z,14.20
2018-06-06T12:20:54.868Z,12.80
2018-06-06T12:23:23.027Z,13.32
2018-06-06T12:25:51.147Z,12.80
2018-06-06T12:28:19.866Z,13.22
2018-06-06T12:30:48.468Z,13.93
2018-06-06T12:33:16.966Z,13.48
2018-06-06T12:35:45.188Z,14.13
2018-06-06T12:38:14.362Z,13.65
2018-06-06T12:40:42.457Z,13.60
2018-06-06T12:43:10.882Z,13.95
2018-06-06T12:45:39.445Z,13.90
2018-06-06T12:48:07.973Z,12.78
2018-06-06T12:50:36.381Z,12.80
2018-06-06T12:53:04.885Z,12.18
2018-06-06T12:55:33.389Z,12.20
2018-06-06T12:58:01.760Z,13.10
2018-06-06T13:00:29.881Z,12.37
2018-06-06T13:02:58.081Z,13.03
2018-06-06T13:05:26.467Z,12.75
2018-06-06T13:07:54.564Z,13.00
2018-06-06T13:10:22.649Z,12.43
2018-06-06T13:12:50.853Z,13.25
2018-06-06T13:15:19.462Z,12.55
2018-06-06T13:17:47.841Z,11.85
2018-06-06T13:20:16.051Z,12.35
2018-06-06T13:22:44.355Z,13.25
2018-06-06T13:25:12.955Z,12.75
2018-06-06T13:27:41.366Z,11.63
2018-06-06T13:30:09.841Z,11.10
2018-06-06T13:32:37.954Z,11.07
2018-06-06T13:35:06.487Z,11.80
2018-06-06T13:37:34.644Z,11.55
2018-06-06T13:40:03.006Z,11.40
2018-06-06T13:42:31.334Z,12.00
2018-06-06T13:45:00.525Z,12.30
2018-06-06T13:47:28.974Z,12.75
2018-06-06T13:49:57.717Z,12.20
2018-06-06T13:52:26.377Z,12.07
2018-06-06T13:54:54.576Z,11.22
2018-06-06T13:57:23.070Z,12.10
2018-06-06T13:59:51.488Z,12.23
2018-06-06T14:02:19.853Z,11.93
2018-06-06T14:04:47.942Z,11.85
2018-06-06T14:07:16.675Z,12.20
2018-06-06T14:09:44.967Z,11.97
2018-06-06T14:12:13.480Z,11.12
2018-06-06T14:14:41.645Z,11.70
2018-06-06T14:17:09.740Z,11.25
2018-06-06T14:19:37.878Z,11.30
2018-06-06T14:22:06.008Z,11.50
2018-06-06T14:24:34.464Z,12.43
2018-06-06T14:27:02.819Z,11.43
2018-06-06T14:29:31.265Z,10.90
2018-06-06T14:31:59.540Z,11.00
2018-06-06T14:34:27.918Z,10.43
2018-06-06T14:36:56.484Z,10.50
2018-06-06T14:39:24.758Z,10.32
2018-06-06T14:41:54.211Z,11.10
2018-06-06T14:44:22.766Z,11.20
2018-06-06T14:46:51.245Z,10.68
2018-06-06T14:49:19.667Z,11.22
2018-06-06T14:51:47.828Z,11.00
2018-06-06T14:54:15.843Z,11.38
2018-06-06T14:56:43.918Z,10.85
2018-06-06T14:59:12.349Z,10.82
2018-06-06T15:01:41.364Z,10.70
2018-06-06T15:04:09.858Z,10.45
2018-06-06T15:06:38.146Z,10.30
2018-06-06T15:09:07.476Z,11.05
2018-06-06T15:11:35.973Z,10.87
2018-06-06T15:14:04.717Z,11.63
2018-06-06T15:16:33.057Z,11.83
2018-06-06T15:19:01.497Z,11.43
2018-06-06T15:21:29.867Z,11.33
2018-06-06T15:23:58.159Z,11.48
2018-06-06T15:26:26.515Z,11.68
2018-06-06T15:28:55.133Z,11.60
2018-06-06T15:31:23.370Z,11.90
2018-06-06T15:33:51.246Z,10.90
2018-06-06T15:36:19.526Z,11.00
2018-06-06T15:38:47.973Z,10.98
2018-06-06T15:41:16.451Z,11.70
2018-06-06T15:43:44.564Z,11.70
2018-06-06T15:46:13.370Z,11.20
2018-06-06T15:48:41.687Z,11.18
2018-06-06T15:51:10.065Z,11.73
2018-06-06T15:53:38.244Z,11.05
2018-06-06T15:56:07.608Z,11.05
2018-06-06T15:58:35.956Z,10.97
2018-06-06T16:01:04.364Z,10.70
2018-06-06T16:03:32.652Z,10.93
2018-06-06T16:06:00.774Z,11.20
2018-06-06T16:08:28.911Z,10.95
2018-06-06T16:10:58.128Z,11.80
2018-06-06T16:13:27.252Z,10.50
2018-06-06T16:15:55.673Z,10.88
2018-06-06T16:18:24.087Z,11.40
2018-06-06T16:20:52.525Z,11.63
2018-06-06T16:23:20.817Z,10.70
2018-06-06T16:25:49.113Z,11.60
2018-06-06T16:28:17.595Z,11.40
2018-06-06T16:30:45.972Z,10.80
2018-06-06T16:33:14.190Z,11.60
2018-06-06T16:35:42.761Z,11.30
2018-06-06T16:38:11.182Z,11.12
2018-06-06T16:40:39.261Z,11.65
2018-06-06T16:43:07.275Z,12.05
2018-06-06T16:45:35.371Z,11.10
2018-06-06T16:48:03.854Z,11.15
2018-06-06T16:50:31.986Z,11.50
2018-06-06T16:53:00.352Z,11.88
2018-06-06T16:55:28.453Z,11.53
2018-06-06T16:57:56.785Z,11.00
2018-06-06T17:00:24.942Z,11.65
2018-06-06T17:02:53.033Z,11.10
2018-06-06T17:05:21.440Z,11.35
2018-06-06T17:07:49.726Z,10.97
2018-06-06T17:10:17.804Z,11.30
2018-06-06T17:12:46.124Z,10.72
2018-06-06T17:15:14.325Z,11.57
2018-06-06T17:17:42.744Z,11.68
2018-06-06T17:20:11.067Z,10.13
2018-06-06T17:22:39.769Z,10.82
2018-06-06T17:25:08.114Z,10.63
2018-06-06T17:27:36.215Z,11.60
2018-06-06T17:30:04.242Z,10.40
2018-06-06T17:32:33.346Z,10.95
2018-06-06T17:35:01.847Z,11.73
2018-06-06T17:37:29.983Z,11.33
2018-06-06T17:39:58.282Z,10.90
2018-06-06T17:42:27.647Z,11.38
2018-06-06T17:44:56.131Z,11.12
2018-06-06T17:47:25.674Z,11.08
2018-06-06T17:49:54.174Z,10.50
2018-06-06T17:52:22.570Z,10.72
2018-06-06T17:54:50.657Z,11.10
2018-06-06T17:57:18.573Z,10.60
2018-06-06T17:59:46.738Z,10.98
2018-06-06T18:02:15.437Z,11.05
2018-06-06T18:04:43.540Z,10.90
2018-06-06T18:07:11.850Z,11.18
2018-06-06T18:09:40.204Z,10.75
2018-06-06T18:12:08.626Z,10.58
2018-06-06T18:14:38.261Z,10.28
2018-06-06T18:17:06.492Z,10.10
2018-06-06T18:19:35.302Z,9.70
2018-06-06T18:22:03.555Z,9.95
2018-06-06T18:24:31.541Z,9.60
2018-06-06T18:26:59.976Z,9.33
2018-06-06T18:29:28.261Z,9.60
2018-06-06T18:31:56.977Z,9.30
2018-06-06T18:34:25.757Z,8.53
2018-06-06T18:36:54.077Z,8.95
2018-06-06T18:39:22.572Z,9.50
2018-06-06T18:41:51.025Z,8.93
2018-06-06T18:44:19.575Z,9.00
2018-06-06T18:46:48.062Z,8.13
2018-06-06T18:49:16.067Z,8.30
2018-06-06T18:51:44.266Z,8.55
2018-06-06T18:54:12.670Z,8.15
2018-06-06T18:56:42.052Z,7.90
2018-06-06T18:59:11.108Z,8.28
2018-06-06T19:01:39.505Z,8.18
2018-06-06T19:04:07.813Z,7.72
2018-06-06T19:06:35.961Z,8.40
2018-06-06T19:09:06.046Z,8.70
2018-06-06T19:11:34.424Z,8.40
2018-06-06T19:14:02.523Z,8.03
2018-06-06T19:16:31.034Z,7.90
2018-06-06T19:18:59.236Z,8.40
2018-06-06T19:21:27.706Z,8.10
2018-06-06T19:23:56.230Z,8.30
2018-06-06T19:26:24.579Z,7.80
2018-06-06T19:28:53.021Z,7.80
2018-06-06T19:31:21.319Z,7.60
2018-06-06T19:33:49.777Z,7.97
2018-06-06T19:36:18.489Z,8.30
2018-06-06T19:38:46.993Z,8.30
2018-06-06T19:41:15.097Z,7.67
2018-06-06T19:43:43.601Z,7.90
2018-06-06T19:46:12.035Z,8.30
2018-06-06T19:48:40.401Z,8.00
2018-06-06T19:51:09.421Z,7.90
2018-06-06T19:53:37.548Z,7.87
2018-06-06T19:56:06.022Z,8.40
2018-06-06T19:58:34.223Z,8.43
2018-06-06T20:01:02.863Z,7.47
2018-06-06T20:03:31.111Z,7.90
2018-06-06T20:05:59.420Z,7.65
2018-06-06T20:08:27.684Z,7.97
2018-06-06T20:10:56.543Z,8.20
2018-06-06T20:13:25.031Z,8.28
2018-06-06T20:15:53.240Z,7.70
2018-06-06T20:18:22.074Z,8.05
2018-06-06T20:20:50.508Z,8.50
2018-06-06T20:23:18.942Z,7.80
2018-06-06T20:25:47.467Z,8.45
2018-06-06T20:28:15.928Z,8.28
2018-06-06T20:30:44.161Z,7.60
2018-06-06T20:33:12.596Z,8.08
2018-06-06T20:35:41.037Z,8.10
2018-06-06T20:38:09.319Z,8.65
2018-06-06T20:40:38.290Z,8.33
2018-06-06T20:43:06.717Z,8.45
2018-06-06T20:45:35.224Z,8.20
2018-06-06T20:48:03.661Z,8.50
2018-06-06T20:50:31.829Z,8.63
2018-06-06T20:52:59.584Z,7.75
2018-06-06T20:55:27.982Z,8.48
2018-06-06T20:57:56.427Z,8.43
2018-06-06T21:00:24.734Z,8.50
2018-06-06T21:02:53.506Z,8.28
2018-06-06T21:05:22.408Z,8.10
2018-06-06T21:07:50.731Z,7.95
2018-06-06T21:10:19.040Z,7.80
2018-06-06T21:12:47.464Z,7.12
2018-06-06T21:15:15.707Z,7.60
2018-06-06T21:17:44.247Z,6.50
2018-06-06T21:20:12.950Z,7.35
2018-06-06T21:22:41.356Z,7.40
2018-06-06T21:25:10.106Z,6.70
2018-06-06T21:27:38.358Z,6.87
2018-06-06T21:30:06.617Z,6.60
2018-06-06T21:32:35.690Z,7.10
2018-06-06T21:35:04.052Z,6.60
2018-06-06T21:37:32.433Z,6.45
2018-06-06T21:40:00.780Z,6.30
2018-06-06T21:42:29.140Z,6.22
2018-06-06T21:44:57.447Z,7.87
2018-06-06T21:47:25.328Z,6.60
2018-06-06T21:49:53.438Z,6.30
2018-06-06T21:52:21.719Z,6.30
2018-06-06T21:54:50.002Z,6.00
2018-06-06T21:57:18.437Z,8.20
2018-06-06T21:59:46.830Z,7.35
2018-06-06T22:02:15.227Z,7.10
2018-06-06T22:04:43.614Z,6.90
2018-06-06T22:07:11.515Z,7.10
2018-06-06T22:09:39.709Z,6.30
2018-06-06T22:12:08.440Z,6.72
2018-06-06T22:14:37.337Z,6.50
2018-06-06T22:17:05.697Z,7.30
2018-06-06T22:19:33.917Z,6.50
2018-06-06T22:22:02.124Z,6.50
2018-06-06T22:24:30.430Z,6.60
2018-06-06T22:26:58.574Z,6.90
2018-06-06T22:29:26.996Z,6.75
2018-06-06T22:31:55.324Z,6.90
2018-06-06T22:34:23.593Z,6.62
2018-06-06T22:36:51.900Z,7.10
2018-06-06T22:39:20.785Z,6.90
2018-06-06T22:41:49.190Z,6.62
2018-06-06T22:44:17.357Z,7.42
2018-06-06T22:46:45.479Z,6.90
2018-06-06T22:49:14.388Z,6.60
2018-06-06T22:51:42.887Z,6.08
2018-06-06T22:54:11.308Z,5.62
2018-06-06T22:56:39.618Z,6.20
2018-06-06T22:59:07.995Z,6.10
2018-06-06T23:01:36.497Z,6.62
2018-06-06T23:04:04.911Z,6.30
2018-06-06T23:06:33.181Z,5.70
2018-06-06T23:09:01.506Z,5.62
2018-06-06T23:11:30.891Z,6.17
2018-06-06T23:13:59.430Z,6.10
2018-06-06T23:16:28.187Z,6.50
2018-06-06T23:18:57.050Z,5.90
2018-06-06T23:21:25.340Z,5.80
2018-06-06T23:23:54.484Z,6.00
2018-06-06T23:26:22.763Z,6.30
2018-06-06T23:28:50.961Z,5.97
2018-06-06T23:31:19.436Z,5.95
2018-06-06T23:33:47.650Z,5.80
2018-06-06T23:36:16.266Z,5.80
2018-06-06T23:38:44.541Z,6.00
2018-06-06T23:41:12.558Z,5.80
2018-06-06T23:43:40.917Z,5.70
2018-06-06T23:46:09.353Z,5.58
2018-06-06T23:48:37.811Z,5.70
2018-06-06T23:51:06.127Z,5.55
2018-06-06T23:53:34.217Z,5.35
2018-06-06T23:56:02.235Z,5.50
2018-06-06T23:58:31.295Z,5.90
